createdAt,value
2017-11-21T00:00:58.023Z,11.73
2017-11-21T00:03:27.464Z,13.07
2017-11-21T00:05:56.557Z,9.20
2017-11-21T00:08:26.481Z,9.45
2017-11-21T00:10:55.614Z,10.75
2017-11-21T00:13:25.405Z,9.70
2017-11-21T00:15:54.409Z,10.38
2017-11-21T00:18:24.306Z,10.18
2017-11-21T00:20:53.314Z,9.48
2017-11-21T00:23:23.143Z,10.90
2017-11-21T00:25:52.348Z,10.50
2017-11-21T00:28:22.881Z,10.05
2017-11-21T00:30:51.962Z,12.40
2017-11-21T00:33:21.839Z,10.55
2017-11-21T00:35:50.997Z,10.95
2017-11-21T00:38:20.153Z,12.90
2017-11-21T00:40:49.914Z,10.10
2017-11-21T00:43:19.103Z,11.82
2017-11-21T00:45:48.413Z,11.27
2017-11-21T00:48:18.353Z,11.18
2017-11-21T00:50:47.585Z,13.88
2017-11-21T00:53:18.469Z,13.00
2017-11-21T00:55:47.677Z,16.60
2017-11-21T00:58:16.905Z,16.15
2017-11-21T01:00:47.269Z,18.75
2017-11-21T01:04:19.190Z,16.33
2017-11-21T01:06:48.986Z,15.98
2017-11-21T01:09:18.075Z,16.90
2017-11-21T01:11:47.136Z,15.10
2017-11-21T01:14:16.256Z,17.67
2017-11-21T01:16:45.492Z,17.20
2017-11-21T01:19:15.946Z,15.30
2017-11-21T01:21:44.976Z,14.45
2017-11-21T01:24:14.052Z,16.75
2017-11-21T01:26:43.140Z,18.30
2017-11-21T01:29:12.227Z,15.75
2017-11-21T01:31:41.481Z,19.33
2017-11-21T01:34:10.613Z,19.55
2017-11-21T01:36:40.462Z,17.17
2017-11-21T01:39:09.485Z,19.02
2017-11-21T01:41:38.540Z,18.42
2017-11-21T01:44:07.585Z,17.90
2017-11-21T01:46:36.579Z,18.77
2017-11-21T01:49:06.132Z,18.75
2017-11-21T01:51:35.113Z,21.00
2017-11-21T01:54:04.276Z,17.37
2017-11-21T01:56:34.100Z,20.25
2017-11-21T01:59:03.911Z,15.57
2017-11-21T02:01:33.702Z,14.13
2017-11-21T02:04:02.730Z,16.45
2017-11-21T02:06:31.729Z,14.87
2017-11-21T02:09:00.797Z,14.80
2017-11-21T02:11:30.587Z,12.48
2017-11-21T02:14:00.661Z,12.23
2017-11-21T02:16:29.684Z,11.65
2017-11-21T02:18:58.702Z,12.70
2017-11-21T02:21:27.850Z,15.20
2017-11-21T02:23:56.957Z,13.10
2017-11-21T02:26:26.112Z,11.93
2017-11-21T02:28:56.006Z,12.23
2017-11-21T02:31:25.942Z,11.73
2017-11-21T02:33:55.860Z,13.80
2017-11-21T02:36:25.722Z,11.50
2017-11-21T02:38:55.158Z,10.65
2017-11-21T02:41:25.139Z,10.32
2017-11-21T02:43:54.838Z,11.00
2017-11-21T02:46:23.994Z,9.77
2017-11-21T02:48:53.970Z,13.70
2017-11-21T02:51:23.138Z,13.23
2017-11-21T02:53:52.233Z,15.27
2017-11-21T02:56:24.103Z,14.48
2017-11-21T02:58:53.199Z,14.25
2017-11-21T03:01:22.586Z,16.95
2017-11-21T03:03:51.612Z,17.80
2017-11-21T03:06:21.820Z,18.55
2017-11-21T03:08:50.876Z,21.42
2017-11-21T03:11:26.179Z,17.65
2017-11-21T03:13:55.184Z,20.20
2017-11-21T03:16:24.315Z,17.67
2017-11-21T03:18:53.365Z,18.35
2017-11-21T03:23:34.208Z,17.75
2017-11-21T03:26:14.916Z,14.02
2017-11-21T03:28:44.823Z,15.38
2017-11-21T03:31:16.829Z,13.32
2017-11-21T03:33:45.978Z,16.73
2017-11-21T03:36:15.231Z,15.32
2017-11-21T03:38:44.443Z,15.57
2017-11-21T03:41:14.869Z,16.60
2017-11-21T03:43:43.960Z,14.98
2017-11-21T03:46:13.068Z,15.77
2017-11-21T03:48:42.250Z,17.33
2017-11-21T03:51:11.288Z,13.95
2017-11-21T03:53:40.321Z,11.25
2017-11-21T03:56:10.146Z,11.90
2017-11-21T03:58:39.146Z,11.43
2017-11-21T04:01:08.340Z,11.70
2017-11-21T04:03:38.253Z,11.23
2017-11-21T04:06:07.303Z,11.38
2017-11-21T04:08:37.376Z,11.82
2017-11-21T04:11:07.693Z,11.95
2017-11-21T04:13:36.718Z,12.65
2017-11-21T04:16:05.753Z,12.35
2017-11-21T04:18:35.718Z,10.10
2017-11-21T04:21:04.903Z,10.27
2017-11-21T04:23:33.918Z,8.88
2017-11-21T04:26:03.027Z,10.25
2017-11-21T04:28:32.093Z,10.15
2017-11-21T04:31:01.206Z,11.32
2017-11-21T04:33:30.534Z,9.43
2017-11-21T04:36:00.305Z,9.38
2017-11-21T04:38:29.351Z,9.48
2017-11-21T04:40:59.109Z,9.35
2017-11-21T04:43:28.288Z,11.63
2017-11-21T04:45:57.302Z,10.20
2017-11-21T04:48:26.334Z,10.60
2017-11-21T04:50:56.052Z,9.65
2017-11-21T04:53:25.867Z,9.82
2017-11-21T04:55:55.624Z,9.85
2017-11-21T04:58:24.657Z,10.52
2017-11-21T05:00:53.706Z,12.05
2017-11-21T05:03:22.750Z,10.70
2017-11-21T05:05:52.535Z,11.32
2017-11-21T05:08:21.607Z,13.85
2017-11-21T05:10:50.642Z,12.35
2017-11-21T05:13:21.650Z,11.90
2017-11-21T05:15:50.734Z,9.90
2017-11-21T05:18:19.921Z,7.45
2017-11-21T05:20:49.065Z,7.57
2017-11-21T05:23:18.174Z,5.75
2017-11-21T05:25:48.068Z,3.53
2017-11-21T05:28:17.126Z,4.28
2017-11-21T05:30:46.294Z,5.00
2017-11-21T05:34:21.505Z,4.70
2017-11-21T05:36:50.598Z,5.00
2017-11-21T05:39:19.743Z,3.62
2017-11-21T05:41:48.778Z,3.37
2017-11-21T05:44:18.455Z,3.50
2017-11-21T05:46:47.662Z,3.22
2017-11-21T05:49:16.782Z,2.95
2017-11-21T05:51:45.860Z,3.42
2017-11-21T05:54:15.050Z,2.33
2017-11-21T05:56:44.189Z,2.42
2017-11-21T05:59:14.083Z,3.00
2017-11-21T06:01:48.703Z,5.03
2017-11-21T06:04:17.829Z,3.60
2017-11-21T06:06:47.666Z,4.25
2017-11-21T06:09:16.778Z,4.15
2017-11-21T06:11:45.870Z,3.55
2017-11-21T06:14:14.930Z,4.20
2017-11-21T06:16:44.020Z,5.28
2017-11-21T06:19:13.183Z,4.70
2017-11-21T06:21:43.840Z,5.97
2017-11-21T06:24:13.732Z,4.60
2017-11-21T06:26:43.009Z,5.15
2017-11-21T06:29:13.009Z,4.50
2017-11-21T06:31:42.069Z,4.47
2017-11-21T06:34:11.219Z,5.00
2017-11-21T06:36:40.449Z,5.15
2017-11-21T06:39:09.599Z,6.85
2017-11-21T06:41:38.673Z,7.15
2017-11-21T06:44:08.591Z,7.18
2017-11-21T06:46:42.303Z,6.97
2017-11-21T06:49:12.494Z,8.05
2017-11-21T06:51:41.629Z,5.93
2017-11-21T06:54:10.869Z,6.03
2017-11-21T06:56:40.108Z,7.15
2017-11-21T06:59:10.278Z,6.50
2017-11-21T07:01:39.517Z,6.43
2017-11-21T07:04:10.269Z,4.43
2017-11-21T07:06:39.571Z,6.40
2017-11-21T07:09:08.972Z,5.12
2017-11-21T07:11:38.017Z,5.97
2017-11-21T07:14:08.480Z,9.10
2017-11-21T07:16:38.412Z,8.73
2017-11-21T07:19:08.671Z,10.07
2017-11-21T07:21:37.945Z,9.65
2017-11-21T07:24:07.491Z,12.05
2017-11-21T07:26:39.415Z,13.85
2017-11-21T07:29:09.293Z,13.27
2017-11-21T07:31:39.306Z,12.18
2017-11-21T07:34:09.275Z,17.92
2017-11-21T07:36:38.270Z,15.52
2017-11-21T07:39:07.376Z,15.95
2017-11-21T07:41:37.436Z,14.80
2017-11-21T07:44:07.514Z,16.52
2017-11-21T07:46:37.342Z,15.48
2017-11-21T07:49:06.442Z,15.23
2017-11-21T07:51:36.340Z,13.88
2017-11-21T07:54:08.499Z,15.18
2017-11-21T07:56:38.255Z,17.50
2017-11-21T07:59:08.796Z,16.42
2017-11-21T08:01:39.280Z,12.63
2017-11-21T08:04:09.017Z,12.40
2017-11-21T08:06:38.972Z,11.35
2017-11-21T08:09:08.340Z,16.08
2017-11-21T08:11:38.510Z,14.27
2017-11-21T08:14:07.705Z,14.05
2017-11-21T08:16:44.329Z,14.25
2017-11-21T08:19:14.219Z,10.93
2017-11-21T08:21:49.159Z,10.40
2017-11-21T08:24:19.147Z,10.27
2017-11-21T08:26:50.385Z,12.73
2017-11-21T08:29:20.285Z,13.32
2017-11-21T08:31:49.430Z,12.07
2017-11-21T08:34:18.548Z,12.35
2017-11-21T08:36:48.509Z,10.80
2017-11-21T08:39:18.592Z,10.40
2017-11-21T08:41:47.690Z,9.07
2017-11-21T08:44:16.936Z,6.47
2017-11-21T08:46:46.190Z,7.72
2017-11-21T08:49:15.646Z,5.00
2017-11-21T08:51:44.781Z,6.05
2017-11-21T08:54:13.896Z,7.47
2017-11-21T08:56:42.967Z,7.72
2017-11-21T08:59:12.842Z,10.05
2017-11-21T09:01:42.822Z,11.02
2017-11-21T09:04:17.705Z,9.55
2017-11-21T09:06:47.565Z,8.75
2017-11-21T09:09:17.488Z,8.63
2017-11-21T09:11:46.886Z,11.50
2017-11-21T09:14:15.930Z,9.60
2017-11-21T09:16:45.980Z,8.60
2017-11-21T09:19:15.946Z,8.77
2017-11-21T09:21:45.774Z,7.60
2017-11-21T09:24:14.938Z,7.43
2017-11-21T09:26:44.816Z,7.03
2017-11-21T09:29:14.905Z,8.50
2017-11-21T09:31:47.159Z,6.12
2017-11-21T09:34:16.911Z,6.20
2017-11-21T09:36:46.038Z,6.43
2017-11-21T09:39:15.213Z,5.05
2017-11-21T09:41:44.343Z,4.93
2017-11-21T09:44:13.494Z,4.78
2017-11-21T09:46:43.449Z,3.70
2017-11-21T09:49:13.139Z,4.37
2017-11-21T09:51:42.982Z,4.30
2017-11-21T09:54:12.245Z,4.60
2017-11-21T09:56:41.398Z,5.03
2017-11-21T09:59:10.716Z,5.37
2017-11-21T10:01:40.633Z,5.10
2017-11-21T10:04:11.107Z,5.03
2017-11-21T10:06:40.383Z,4.80
2017-11-21T10:09:17.367Z,5.47
2017-11-21T10:11:46.906Z,5.07
2017-11-21T10:14:16.240Z,4.10
2017-11-21T10:16:46.125Z,3.85
2017-11-21T10:19:16.128Z,4.20
2017-11-21T10:21:45.206Z,3.33
2017-11-21T10:24:15.003Z,3.22
2017-11-21T10:26:45.165Z,3.42
2017-11-21T10:29:14.329Z,3.50
2017-11-21T10:31:43.673Z,3.92
2017-11-21T10:34:12.871Z,3.75
2017-11-21T10:36:42.127Z,4.05
2017-11-21T10:39:12.382Z,5.18
2017-11-21T10:41:41.779Z,5.25
2017-11-21T10:44:10.981Z,5.87
2017-11-21T10:46:41.051Z,7.35
2017-11-21T10:49:11.607Z,7.10
2017-11-21T10:51:41.091Z,8.30
2017-11-21T10:54:10.338Z,8.77
2017-11-21T10:56:40.228Z,8.60
2017-11-21T10:59:11.373Z,8.20
2017-11-21T11:01:41.494Z,7.50
2017-11-21T11:04:11.096Z,8.38
2017-11-21T11:06:40.352Z,9.75
2017-11-21T11:09:11.209Z,8.98
2017-11-21T11:11:40.645Z,9.63
2017-11-21T11:14:10.790Z,8.63
2017-11-21T11:16:41.127Z,10.23
2017-11-21T11:19:11.260Z,10.07
2017-11-21T11:21:47.438Z,8.80
2017-11-21T11:24:16.901Z,10.18
2017-11-21T11:26:46.319Z,10.55
2017-11-21T11:29:16.775Z,10.20
2017-11-21T11:31:47.063Z,10.13
2017-11-21T11:34:16.498Z,10.88
2017-11-21T11:36:45.769Z,9.18
2017-11-21T11:39:16.595Z,10.48
2017-11-21T11:41:46.473Z,10.70
2017-11-21T11:44:18.367Z,10.68
2017-11-21T11:46:54.290Z,9.75
2017-11-21T11:49:23.617Z,10.05
2017-11-21T11:51:53.879Z,8.98
2017-11-21T11:54:24.118Z,9.60
2017-11-21T11:57:00.053Z,10.70
2017-11-21T11:59:39.467Z,13.82
2017-11-21T12:02:10.634Z,11.15
2017-11-21T12:04:40.850Z,10.32
2017-11-21T12:07:27.168Z,10.50
2017-11-21T12:09:56.541Z,11.85
2017-11-21T12:12:41.614Z,9.63
2017-11-21T12:15:20.236Z,11.80
2017-11-21T12:18:08.401Z,9.70
2017-11-21T12:20:43.187Z,10.18
2017-11-21T12:23:31.348Z,9.20
2017-11-21T12:26:08.117Z,8.57
2017-11-21T12:28:45.562Z,7.45
2017-11-21T12:31:25.400Z,6.03
2017-11-21T12:33:55.795Z,4.80
2017-11-21T12:36:41.510Z,4.95
2017-11-21T12:39:12.139Z,4.28
2017-11-21T12:41:43.565Z,3.67
2017-11-21T12:44:14.721Z,3.30
2017-11-21T12:46:57.067Z,4.12
2017-11-21T12:49:28.076Z,4.57
2017-11-21T12:51:58.547Z,3.33
2017-11-21T12:54:28.904Z,4.35
2017-11-21T12:56:58.948Z,4.20
2017-11-21T13:02:05.142Z,4.15
2017-11-21T13:04:34.542Z,3.92
2017-11-21T13:07:07.170Z,2.90
2017-11-21T13:09:37.326Z,2.80
2017-11-21T13:12:08.736Z,2.70
2017-11-21T13:14:39.001Z,2.28
2017-11-21T13:17:15.812Z,2.40
2017-11-21T13:19:45.273Z,6.60
2017-11-21T13:22:14.592Z,2.60
2017-11-21T13:24:44.194Z,2.60
2017-11-21T13:27:16.342Z,2.97
2017-11-21T13:29:46.817Z,3.10
2017-11-21T13:32:17.674Z,3.00
2017-11-21T13:34:50.399Z,3.05
2017-11-21T13:37:19.780Z,3.20
2017-11-21T13:39:50.260Z,3.15
2017-11-21T13:42:19.772Z,3.83
2017-11-21T13:44:49.241Z,3.22
2017-11-21T13:47:19.352Z,3.20
2017-11-21T13:49:49.513Z,3.40
2017-11-21T13:52:18.987Z,4.47
2017-11-21T13:54:49.491Z,2.60
2017-11-21T13:57:20.943Z,3.30
2017-11-21T13:59:51.718Z,2.92
2017-11-21T14:02:22.345Z,3.30
2017-11-21T14:04:52.900Z,2.80
2017-11-21T14:07:22.125Z,3.30
2017-11-21T14:09:52.146Z,3.20
2017-11-21T14:12:25.179Z,3.25
2017-11-21T14:14:54.503Z,3.70
2017-11-21T14:17:24.039Z,3.60
2017-11-21T14:19:53.464Z,4.15
2017-11-21T14:22:25.823Z,3.95
2017-11-21T14:24:55.951Z,3.70
2017-11-21T14:27:32.011Z,4.22
2017-11-21T14:30:01.393Z,4.47
2017-11-21T14:32:34.840Z,4.00
2017-11-21T14:35:14.241Z,3.90
2017-11-21T14:37:44.412Z,5.05
2017-11-21T14:40:16.457Z,4.47
2017-11-21T14:42:47.177Z,5.37
2017-11-21T14:45:23.376Z,4.87
2017-11-21T14:47:55.471Z,4.70
2017-11-21T14:50:24.908Z,5.55
2017-11-21T14:52:57.970Z,5.20
2017-11-21T14:55:27.543Z,5.97
2017-11-21T14:57:56.752Z,7.43
2017-11-21T15:00:36.397Z,5.40
2017-11-21T15:03:06.083Z,5.45
2017-11-21T15:05:35.845Z,5.00
2017-11-21T15:08:09.009Z,5.75
2017-11-21T15:10:48.834Z,5.15
2017-11-21T15:19:14.260Z,6.70
2017-11-21T15:21:46.268Z,7.00
2017-11-21T15:24:21.854Z,7.12
2017-11-21T15:26:52.373Z,9.15
2017-11-21T15:29:21.789Z,9.45
2017-11-21T15:31:51.349Z,10.45
2017-11-21T15:34:21.853Z,13.23
2017-11-21T15:36:52.565Z,12.15
2017-11-21T15:39:22.955Z,12.00
2017-11-21T15:41:52.136Z,13.23
2017-11-21T15:44:22.348Z,11.82
2017-11-21T15:46:52.395Z,11.63
2017-11-21T15:49:22.984Z,10.82
2017-11-21T15:51:53.248Z,12.63
2017-11-21T15:54:22.495Z,11.75
2017-11-21T15:56:52.706Z,12.70
2017-11-21T15:59:22.169Z,12.23
2017-11-21T16:01:51.360Z,11.70
2017-11-21T16:04:21.460Z,13.55
2017-11-21T16:06:52.023Z,11.93
2017-11-21T16:09:21.528Z,11.70
2017-11-21T16:11:50.876Z,11.98
2017-11-21T16:14:20.871Z,12.55
2017-11-21T16:16:50.755Z,11.18
2017-11-21T16:19:20.780Z,12.05
2017-11-21T16:21:50.135Z,11.60
2017-11-21T16:24:20.054Z,12.93
2017-11-21T16:26:50.049Z,12.13
2017-11-21T16:29:20.400Z,13.93
2017-11-21T16:31:49.753Z,12.80
2017-11-21T16:34:20.043Z,12.35
2017-11-21T16:36:56.145Z,12.75
2017-11-21T16:39:26.131Z,12.02
2017-11-21T16:41:55.252Z,12.75
2017-11-21T16:44:25.542Z,12.65
2017-11-21T16:46:55.636Z,13.10
2017-11-21T16:49:25.656Z,11.85
2017-11-21T16:51:55.548Z,12.10
2017-11-21T16:54:26.186Z,12.37
2017-11-21T16:56:55.378Z,12.43
2017-11-21T16:59:26.297Z,12.73
2017-11-21T17:01:55.443Z,13.57
2017-11-21T17:04:25.421Z,12.07
2017-11-21T17:06:54.550Z,14.50
2017-11-21T17:09:26.106Z,11.52
2017-11-21T17:11:55.964Z,13.32
2017-11-21T17:14:25.446Z,13.18
2017-11-21T17:16:54.592Z,13.77
2017-11-21T17:19:23.890Z,12.80
2017-11-21T17:21:53.826Z,13.85
2017-11-21T17:24:23.252Z,15.35
2017-11-21T17:26:52.458Z,13.50
2017-11-21T17:29:22.790Z,12.55
2017-11-21T17:31:53.008Z,13.35
2017-11-21T17:34:24.000Z,11.98
2017-11-21T17:36:56.108Z,12.50
2017-11-21T17:39:26.140Z,13.10
2017-11-21T17:41:55.671Z,14.27
2017-11-21T17:44:25.028Z,13.55
2017-11-21T17:46:54.324Z,13.62
2017-11-21T17:49:23.719Z,15.07
2017-11-21T17:51:54.485Z,15.70
2017-11-21T17:54:24.672Z,15.20
2017-11-21T17:56:58.793Z,15.15
2017-11-21T17:59:28.883Z,14.93
2017-11-21T18:01:58.145Z,16.52
2017-11-21T18:04:27.546Z,15.15
2017-11-21T18:06:56.658Z,16.20
2017-11-21T18:09:26.312Z,17.05
2017-11-21T18:11:55.405Z,15.50
2017-11-21T18:14:27.260Z,16.60
2017-11-21T18:16:57.220Z,20.25
2017-11-21T18:19:26.881Z,24.73
2017-11-21T18:22:01.761Z,17.70
2017-11-21T18:24:31.053Z,20.73
2017-11-21T18:27:09.557Z,18.58
2017-11-21T18:29:38.801Z,19.50
2017-11-21T18:32:08.973Z,18.23
2017-11-21T18:34:38.799Z,19.17
2017-11-21T18:37:13.229Z,19.05
2017-11-21T18:39:43.124Z,18.87
2017-11-21T18:42:12.421Z,18.10
2017-11-21T18:44:41.779Z,18.27
2017-11-21T18:47:12.494Z,18.55
2017-11-21T18:49:41.727Z,21.20
2017-11-21T18:52:11.913Z,23.65
2017-11-21T18:54:42.531Z,19.85
2017-11-21T18:57:11.919Z,20.77
2017-11-21T18:59:41.205Z,17.77
2017-11-21T19:02:11.518Z,19.90
2017-11-21T19:04:41.092Z,19.12
2017-11-21T19:07:11.183Z,20.30
2017-11-21T19:09:40.469Z,23.67
2017-11-21T19:12:10.611Z,21.08
2017-11-21T19:14:39.785Z,20.62
2017-11-21T19:17:09.065Z,16.45
2017-11-21T19:19:38.162Z,17.52
2017-11-21T19:22:09.575Z,19.10
2017-11-21T19:24:39.526Z,16.45
2017-11-21T19:27:09.564Z,19.05
2017-11-21T19:29:38.689Z,20.00
2017-11-21T19:32:08.535Z,18.70
2017-11-21T19:34:44.244Z,23.77
2017-11-21T19:37:14.124Z,20.42
2017-11-21T19:39:43.398Z,21.92
2017-11-21T19:42:13.663Z,19.23
2017-11-21T19:44:44.025Z,20.77
2017-11-21T19:47:15.153Z,19.37
2017-11-21T19:49:45.185Z,19.67
2017-11-21T19:52:15.508Z,19.05
2017-11-21T19:54:46.049Z,21.77
2017-11-21T19:57:16.253Z,18.05
2017-11-21T19:59:46.987Z,19.70
2017-11-21T20:02:16.304Z,21.87
2017-11-21T20:04:46.435Z,20.17
2017-11-21T20:07:17.125Z,22.08
2017-11-21T20:09:50.047Z,23.73
2017-11-21T20:12:20.073Z,21.95
2017-11-21T20:14:50.345Z,23.85
2017-11-21T20:17:19.702Z,25.30
2017-11-21T20:19:49.005Z,21.42
2017-11-21T20:22:18.232Z,20.30
2017-11-21T20:24:47.715Z,21.23
2017-11-21T20:27:17.678Z,21.58
2017-11-21T20:29:48.020Z,25.27
2017-11-21T20:32:17.310Z,21.50
2017-11-21T20:34:46.887Z,24.70
2017-11-21T20:37:22.182Z,19.75
2017-11-21T20:39:52.194Z,22.40
2017-11-21T20:44:58.538Z,24.00
2017-11-21T20:47:29.412Z,25.55
2017-11-21T20:49:59.452Z,20.67
2017-11-21T20:52:29.248Z,21.75
2017-11-21T20:54:59.252Z,23.50
2017-11-21T20:57:29.284Z,27.27
2017-11-21T20:59:59.274Z,24.92
2017-11-21T21:02:29.038Z,26.87
2017-11-21T21:04:58.268Z,22.62
2017-11-21T21:07:27.689Z,26.35
2017-11-21T21:09:57.061Z,26.05
2017-11-21T21:12:27.426Z,24.23
2017-11-21T21:14:57.492Z,26.40
2017-11-21T21:17:31.539Z,28.10
2017-11-21T21:20:00.904Z,26.33
2017-11-21T21:22:41.844Z,27.37
2017-11-21T21:25:16.254Z,28.35
2017-11-21T21:27:47.676Z,29.37
2017-11-21T21:30:22.564Z,29.65
2017-11-21T21:32:53.519Z,24.83
2017-11-21T21:35:26.466Z,24.05
2017-11-21T21:37:56.736Z,36.60
2017-11-21T21:40:28.454Z,28.42
2017-11-21T21:42:58.624Z,29.75
2017-11-21T21:45:28.915Z,30.27
2017-11-21T21:48:06.874Z,31.58
2017-11-21T21:50:37.541Z,28.73
2017-11-21T21:53:07.867Z,28.70
2017-11-21T21:55:38.517Z,27.20
2017-11-21T21:58:07.736Z,29.77
2017-11-21T22:00:41.439Z,29.55
2017-11-21T22:03:17.797Z,29.55
2017-11-21T22:05:48.405Z,26.35
2017-11-21T22:08:19.415Z,29.20
2017-11-21T22:10:51.099Z,33.78
2017-11-21T22:13:21.548Z,28.35
2017-11-21T22:15:51.984Z,30.17
2017-11-21T22:18:29.347Z,28.20
2017-11-21T22:21:02.100Z,30.42
2017-11-21T22:23:38.924Z,30.88
2017-11-21T22:26:09.418Z,31.90
2017-11-21T22:28:40.846Z,34.05
2017-11-21T22:31:11.948Z,34.45
2017-11-21T22:33:41.173Z,34.92
2017-11-21T22:36:13.312Z,32.50
2017-11-21T22:38:45.514Z,32.20
2017-11-21T22:41:16.580Z,33.20
2017-11-21T22:43:47.361Z,34.00
2017-11-21T22:46:17.037Z,37.88
2017-11-21T22:48:46.356Z,33.08
2017-11-21T22:51:16.884Z,33.03
2017-11-21T22:53:46.484Z,31.48
2017-11-21T22:56:20.890Z,34.35
2017-11-21T22:58:50.456Z,30.85
2017-11-21T23:01:21.675Z,36.30
2017-11-21T23:03:51.323Z,43.95
2017-11-21T23:06:22.534Z,37.95
2017-11-21T23:08:51.780Z,38.60
2017-11-21T23:11:21.178Z,38.85
2017-11-21T23:13:50.743Z,38.22
2017-11-21T23:16:31.232Z,41.33
2017-11-21T23:19:12.649Z,39.95
2017-11-21T23:21:45.439Z,43.03
2017-11-21T23:24:14.761Z,40.12
2017-11-21T23:29:22.931Z,41.55
2017-11-21T23:31:57.100Z,43.20
2017-11-21T23:34:27.192Z,39.33
2017-11-21T23:36:56.333Z,39.67
2017-11-21T23:39:25.471Z,38.85
2017-11-21T23:41:54.525Z,39.20
2017-11-21T23:44:23.627Z,45.63
2017-11-21T23:46:52.904Z,37.95
2017-11-21T23:49:21.915Z,33.85
2017-11-21T23:51:50.911Z,36.00
2017-11-21T23:54:19.959Z,36.55
2017-11-21T23:56:49.101Z,33.83
2017-11-21T23:59:18.980Z,33.33
